Time;durP1;ratioP1;P1;durP2;ratioP2;P2;SDS_P1;SDS_P2;PMS_P1;PMS_P2;Temp;Humidity;BMP_temperature;BMP_pressure;BME280_temperature;BME280_humidity;BME280_pressure;Samples;Min_cycle;Max_cycle;Signal;HPM_P1;HPM_P2
2022/01/11 00:16:25;;;;;;;2.95;1.50;;;12.10;59.30;;;;;;20650801;28;20335;-79
2022/01/11 00:26:26;;;;;;;2.42;1.30;;;12.10;59.30;;;;;;20646946;28;20030;-77
2022/01/11 00:36:40;;;;;;;2.00;1.10;;;12.00;59.30;;;;;;20630829;28;20072;-77
2022/01/11 00:46:40;;;;;;;3.10;1.80;;;12.00;59.30;;;;;;20631051;28;20045;-78
2022/01/11 00:56:41;;;;;;;2.80;1.15;;;12.00;59.30;;;;;;20629541;28;20042;-77
2022/01/11 01:06:44;;;;;;;2.83;1.30;;;12.00;59.30;;;;;;20645215;28;20034;-77
2022/01/11 01:16:46;;;;;;;1.52;1.17;;;12.00;59.30;;;;;;20646240;28;20134;-77
2022/01/11 01:27:07;;;;;;;2.15;1.27;;;12.00;59.30;;;;;;20660643;28;20034;-77
2022/01/11 01:37:07;;;;;;;2.00;1.35;;;12.00;59.40;;;;;;20659798;28;20042;-78
2022/01/11 01:47:08;;;;;;;3.17;1.27;;;12.00;59.40;;;;;;20659169;28;20062;-77
2022/01/11 01:57:09;;;;;;;1.48;0.82;;;12.00;59.40;;;;;;20641965;28;20061;-77
2022/01/11 02:07:10;;;;;;;1.98;1.20;;;12.00;59.50;;;;;;20640985;28;20042;-77
2022/01/11 02:17:10;;;;;;;1.63;1.30;;;12.00;59.50;;;;;;20656681;28;20432;-77
2022/01/11 02:27:12;;;;;;;2.22;1.20;;;11.90;59.50;;;;;;20640448;28;20373;-78
2022/01/11 02:37:15;;;;;;;2.28;1.10;;;11.90;59.50;;;;;;20624510;28;20045;-78
2022/01/11 02:47:22;;;;;;;2.07;1.20;;;11.90;59.50;;;;;;20655492;28;20046;-76
2022/01/11 02:57:25;;;;;;;2.20;1.30;;;11.90;59.60;;;;;;20621948;28;20489;-79
2022/01/11 03:07:32;;;;;;;2.03;1.00;;;11.90;59.60;;;;;;20653713;28;20026;-77
2022/01/11 03:17:32;;;;;;;2.70;1.27;;;11.90;59.60;;;;;;20635782;28;20400;-77
2022/01/11 03:27:34;;;;;;;1.67;1.08;;;11.90;59.60;;;;;;20619570;28;20289;-76
2022/01/11 03:37:37;;;;;;;2.10;1.17;;;11.90;59.60;;;;;;20635019;28;20042;-76
2022/01/11 03:47:38;;;;;;;2.72;1.30;;;11.90;59.60;;;;;;20633252;28;20042;-78
2022/01/11 03:57:40;;;;;;;1.10;0.80;;;11.80;59.60;;;;;;20617026;28;20417;-77
2022/01/11 04:07:41;;;;;;;2.17;1.30;;;11.90;59.70;;;;;;20648190;28;20069;-77
2022/01/11 04:17:43;;;;;;;2.33;1.02;;;11.90;59.70;;;;;;20616072;28;20050;-76
2022/01/11 04:27:44;;;;;;;1.50;0.82;;;11.90;59.70;;;;;;20631347;28;20069;-77
2022/01/11 04:37:45;;;;;;;2.50;1.13;;;11.80;59.70;;;;;;20630543;28;20129;-78
2022/01/11 04:47:48;;;;;;;2.38;0.98;;;11.80;59.70;;;;;;20615815;28;20413;-77
2022/01/11 04:57:49;;;;;;;2.22;1.20;;;11.80;59.70;;;;;;20659265;28;20135;-78
2022/01/11 05:07:49;;;;;;;1.02;0.70;;;11.80;59.70;;;;;;20645762;28;20034;-76
2022/01/11 05:17:51;;;;;;;2.30;1.17;;;12.10;59.40;;;;;;20590055;28;20043;-81
2022/01/11 05:27:51;;;;;;;2.25;1.05;;;12.90;57.60;;;;;;20565169;28;20027;-81
2022/01/11 05:37:54;;;;;;;2.38;1.35;;;13.70;55.60;;;;;;20563811;28;20057;-76
2022/01/11 05:47:55;;;;;;;2.20;1.20;;;14.50;53.60;;;;;;20562446;28;20397;-85
2022/01/11 05:57:57;;;;;;;2.78;1.40;;;15.00;52.10;;;;;;20562722;28;20030;-82
2022/01/11 06:07:58;;;;;;;2.20;1.42;;;15.20;51.40;;;;;;20578681;28;20058;-84
2022/01/11 06:18:01;;;;;;;2.67;1.40;;;15.20;51.00;;;;;;20510682;28;20056;-81
2022/01/11 06:28:03;;;;;;;2.28;1.10;;;14.90;51.20;;;;;;20634473;28;20030;-81
2022/01/11 06:38:04;;;;;;;2.42;1.08;;;14.20;52.50;;;;;;20624044;28;20117;-79
2022/01/11 06:48:08;;;;;;;2.55;1.63;;;13.60;53.90;;;;;;20574162;28;20069;-79
2022/01/11 06:58:09;;;;;;;2.15;1.33;;;13.10;55.10;;;;;;20541397;28;20333;-79
2022/01/11 07:08:11;;;;;;;2.80;1.40;;;12.60;56.10;;;;;;20585120;28;20057;-79
2022/01/11 07:18:12;;;;;;;2.22;1.20;;;12.30;57.10;;;;;;20635487;28;20129;-78
2022/01/11 07:28:15;;;;;;;1.67;0.93;;;12.10;57.70;;;;;;20652308;28;20077;-78
2022/01/11 07:38:18;;;;;;;2.67;1.42;;;12.00;58.20;;;;;;20624676;28;20061;-79
2022/01/11 07:48:19;;;;;;;2.63;1.52;;;11.90;58.50;;;;;;20556373;28;20041;-78
2022/01/11 07:58:26;;;;;;;3.85;1.92;;;11.80;58.70;;;;;;20623460;28;20046;-78
2022/01/11 08:08:28;;;;;;;3.83;1.70;;;11.80;58.80;;;;;;20576486;28;20034;-79
2022/01/11 08:18:32;;;;;;;2.67;1.45;;;11.80;58.90;;;;;;20538348;28;20393;-78
2022/01/11 08:28:33;;;;;;;2.22;1.38;;;11.80;58.90;;;;;;20584473;28;20061;-80
2022/01/11 08:38:37;;;;;;;3.03;1.33;;;11.80;59.00;;;;;;20568913;28;20133;-78
2022/01/11 08:48:40;;;;;;;2.50;1.48;;;11.80;59.00;;;;;;20547640;28;20061;-78
2022/01/11 08:58:46;;;;;;;2.27;1.40;;;11.90;59.20;;;;;;20505651;28;20054;-78
2022/01/11 09:08:53;;;;;;;2.85;1.42;;;11.80;59.20;;;;;;20478451;28;20134;-77
2022/01/11 09:18:54;;;;;;;3.92;1.83;;;11.80;59.30;;;;;;20524202;28;20400;-79
2022/01/11 09:28:55;;;;;;;2.75;1.70;;;11.70;59.30;;;;;;20626671;28;20093;-79
2022/01/11 09:38:57;;;;;;;3.55;1.35;;;11.70;59.40;;;;;;20556669;28;20047;-79
2022/01/11 09:48:59;;;;;;;3.38;1.75;;;11.70;59.50;;;;;;20545634;28;20121;-80
2022/01/11 09:59:00;;;;;;;2.55;1.10;;;11.70;59.50;;;;;;20545110;28;20481;-78
2022/01/11 10:09:21;;;;;;;3.42;1.63;;;11.70;59.60;;;;;;20566142;28;20059;-78
2022/01/11 10:19:26;;;;;;;2.72;1.35;;;11.70;59.60;;;;;;20557839;28;20035;-77
2022/01/11 10:29:28;;;;;;;1.77;1.00;;;11.70;59.70;;;;;;20557514;28;20051;-77
2022/01/11 10:39:39;;;;;;;3.00;1.33;;;11.70;59.70;;;;;;20572481;28;20133;-80
2022/01/11 10:49:43;;;;;;;2.65;1.80;;;11.70;59.80;;;;;;20510487;28;20371;-81
2022/01/11 11:00:07;;;;;;;2.20;1.25;;;11.70;59.90;;;;;;20512120;28;20047;-79
2022/01/11 11:10:09;;;;;;;2.47;1.30;;;11.70;59.90;;;;;;20565347;28;20130;-79
2022/01/11 11:20:10;;;;;;;2.80;1.20;;;12.10;59.30;;;;;;20569953;28;20441;-80
2022/01/11 11:30:11;;;;;;;5.57;1.70;;;12.90;57.30;;;;;;20569935;28;20045;-80
2022/01/11 11:40:17;;;;;;;1.33;1.00;;;13.70;55.30;;;;;;21050251;23;20073;-73
2022/01/11 11:50:21;;;;;;;2.60;1.47;;;14.50;53.50;;;;;;20700916;28;20113;-72
2022/01/11 12:00:32;;;;;;;3.08;1.63;;;15.00;52.10;;;;;;20715208;28;20103;-80
2022/01/11 12:10:56;;;;;;;4.35;2.03;;;15.20;51.20;;;;;;20769877;28;20116;-79
2022/01/11 12:20:59;;;;;;;2.83;1.38;;;15.20;50.80;;;;;;20727131;28;20400;-75
2022/01/11 12:31:22;;;;;;;3.65;1.85;;;15.10;50.80;;;;;;20730271;28;20034;-79
2022/01/11 12:41:29;;;;;;;3.08;1.42;;;14.50;51.90;;;;;;20729093;28;20520;-80
2022/01/11 12:51:47;;;;;;;3.20;1.77;;;13.80;53.20;;;;;;20711472;28;20599;-74
2022/01/11 13:02:00;;;;;;;3.22;1.83;;;13.20;54.40;;;;;;20740726;28;20172;-74
2022/01/11 13:12:01;;;;;;;2.60;1.65;;;12.80;55.60;;;;;;20720065;28;20073;-76
2022/01/11 13:22:05;;;;;;;3.92;1.92;;;12.50;56.40;;;;;;20743418;28;20053;-74
2022/01/11 13:32:06;;;;;;;6.50;1.67;;;12.30;57.20;;;;;;20742488;28;20052;-75
2022/01/11 13:42:10;;;;;;;2.92;1.73;;;12.20;57.70;;;;;;20741604;28;20050;-76
2022/01/11 13:52:15;;;;;;;4.03;1.40;;;12.10;58.10;;;;;;20730237;28;20030;-80
2022/01/11 14:02:21;;;;;;;3.38;1.80;;;12.10;58.30;;;;;;20708223;28;20488;-77
2022/01/11 14:12:27;;;;;;;2.97;1.40;;;12.10;58.40;;;;;;20722679;28;20069;-81
2022/01/11 14:22:47;;;;;;;3.35;1.15;;;12.20;58.40;;;;;;20809323;28;20034;-79
2022/01/11 14:32:59;;;;;;;2.58;1.45;;;12.20;58.40;;;;;;20817671;28;20029;-79
2022/01/11 14:43:14;;;;;;;2.63;1.45;;;12.20;58.40;;;;;;20782571;28;20125;-79
2022/01/11 14:53:16;;;;;;;3.60;1.80;;;12.10;58.50;;;;;;20719122;28;20038;-79
2022/01/11 15:03:31;;;;;;;3.15;1.40;;;12.10;58.60;;;;;;20744802;28;20042;-79
2022/01/11 15:13:37;;;;;;;2.15;1.20;;;12.10;58.70;;;;;;20733233;28;20050;-77
2022/01/11 15:23:39;;;;;;;1.80;1.00;;;12.10;58.90;;;;;;20732200;28;20523;-77
2022/01/11 15:33:40;;;;;;;4.65;1.73;;;11.90;58.90;;;;;;20748292;28;20300;-78
2022/01/11 15:43:41;;;;;;;2.60;1.83;;;11.90;59.10;;;;;;20744695;28;20038;-76
2022/01/11 15:53:43;;;;;;;4.10;1.50;;;12.40;58.10;;;;;;20744185;28;20045;-77
2022/01/11 16:03:45;;;;;;;4.35;1.90;;;13.30;56.10;;;;;;20711179;28;20068;-78
2022/01/11 16:13:47;;;;;;;2.45;1.48;;;14.10;54.20;;;;;;20726801;28;20147;-77
2022/01/11 16:23:47;;;;;;;3.35;1.95;;;14.60;52.60;;;;;;20670852;28;20065;-77
2022/01/11 16:33:54;;;;;;;4.32;1.50;;;14.90;51.60;;;;;;20737362;28;20132;-78
2022/01/11 16:43:56;;;;;;;4.82;1.60;;;15.10;51.10;;;;;;20805346;28;20435;-77
2022/01/11 16:53:57;;;;;;;3.05;1.70;;;15.00;50.70;;;;;;20807458;28;20522;-77
2022/01/11 17:03:58;;;;;;;2.95;1.27;;;14.90;50.70;;;;;;20795671;28;20037;-74
2022/01/11 17:13:59;;;;;;;2.07;1.20;;;14.80;50.90;;;;;;20782131;28;20136;-79
2022/01/11 17:24:02;;;;;;;2.25;1.50;;;14.40;51.40;;;;;;20824737;28;20280;-78
2022/01/11 17:34:03;;;;;;;3.03;1.70;;;13.70;52.60;;;;;;20822377;28;20043;-79
2022/01/11 17:44:06;;;;;;;2.92;1.20;;;13.10;54.50;;;;;;20766499;28;20064;-75
2022/01/11 17:54:19;;;;;;;2.95;1.70;;;12.70;55.00;;;;;;20724027;28;20422;-78
2022/01/11 18:04:23;;;;;;;3.45;1.70;;;12.30;55.80;;;;;;20736320;28;20030;-78
2022/01/11 18:14:23;;;;;;;3.10;1.83;;;12.10;56.50;;;;;;20738264;28;20050;-75
2022/01/11 18:24:24;;;;;;;6.45;2.40;;;11.90;57.00;;;;;;20736602;28;20136;-75
2022/01/11 18:34:25;;;;;;;7.60;2.65;;;11.90;57.50;;;;;;20720018;28;20050;-78
2022/01/11 18:44:26;;;;;;;4.25;2.63;;;11.80;57.70;;;;;;20734793;28;20053;-74
2022/01/11 18:54:26;;;;;;;6.00;2.50;;;11.90;57.80;;;;;;20734571;28;20030;-76
2022/01/11 19:04:28;;;;;;;6.13;3.65;;;11.90;57.80;;;;;;20717953;28;20426;-76
2022/01/11 19:14:32;;;;;;;7.80;3.15;;;12.00;57.70;;;;;;20716979;28;20297;-77
2022/01/11 19:24:32;;;;;;;4.53;2.90;;;12.10;57.60;;;;;;20732740;28;20041;-76
2022/01/11 19:34:34;;;;;;;9.05;4.15;;;12.10;57.50;;;;;;20761346;28;20136;-75
2022/01/11 19:44:36;;;;;;;8.77;3.70;;;12.10;57.50;;;;;;20755786;28;20046;-79
2022/01/11 19:54:40;;;;;;;9.38;4.53;;;12.10;57.50;;;;;;20792853;28;20076;-79
2022/01/11 20:04:41;;;;;;;7.10;4.22;;;12.20;57.50;;;;;;20760712;28;20448;-78
2022/01/11 20:14:42;;;;;;;7.63;4.32;;;12.10;57.50;;;;;;20728488;28;20049;-76
2022/01/11 20:35:03;;;;;;;8.43;4.05;;;12.10;57.60;;;;;;20714507;28;20104;-76
2022/01/11 20:45:05;;;;;;;6.57;3.58;;;12.10;57.60;;;;;;20734435;28;20046;-78
2022/01/11 20:55:06;;;;;;;10.77;3.88;;;12.10;57.70;;;;;;20711788;28;20062;-79
2022/01/11 21:05:07;;;;;;;7.10;3.60;;;12.10;57.70;;;;;;20712256;28;20464;-78
2022/01/11 21:15:11;;;;;;;8.30;3.70;;;12.00;57.70;;;;;;20712185;28;20038;-79
2022/01/11 21:25:13;;;;;;;7.22;3.42;;;12.00;57.70;;;;;;20712825;28;20026;-78
2022/01/11 21:35:14;;;;;;;7.75;3.92;;;12.00;57.70;;;;;;20701073;28;20053;-79
2022/01/11 21:45:14;;;;;;;7.55;4.15;;;12.00;57.80;;;;;;20758906;28;20404;-78
2022/01/11 21:55:16;;;;;;;7.07;3.75;;;12.00;57.80;;;;;;20726948;28;20185;-78
2022/01/11 22:05:20;;;;;;;8.02;3.97;;;12.00;57.80;;;;;;20742266;28;20388;-78
2022/01/11 22:25:34;;;;;;;10.73;4.63;;;12.00;57.90;;;;;;20726732;28;20034;-79
2022/01/11 22:35:35;;;;;;;7.15;4.00;;;12.00;57.90;;;;;;20755920;28;20172;-79
2022/01/11 22:45:36;;;;;;;9.95;3.90;;;12.00;57.90;;;;;;20737689;28;20037;-78
2022/01/11 22:55:37;;;;;;;8.30;4.53;;;12.00;58.00;;;;;;20705884;28;20134;-79
2022/01/11 23:05:37;;;;;;;7.23;4.10;;;11.90;57.90;;;;;;20704512;28;20037;-79
2022/01/11 23:15:39;;;;;;;11.23;5.53;;;12.00;57.90;;;;;;20720815;28;20304;-78
2022/01/11 23:25:40;;;;;;;8.50;3.85;;;12.00;57.90;;;;;;20720233;28;20041;-79
2022/01/11 23:35:47;;;;;;;9.20;4.13;;;11.90;57.90;;;;;;20735254;28;20030;-78
2022/01/11 23:45:54;;;;;;;9.77;4.53;;;11.90;57.90;;;;;;20718764;28;20037;-80
2022/01/11 23:55:56;;;;;;;;;;;11.90;57.90;;;;;;20702558;28;20045;-79
